Time;durP1;ratioP1;P1;durP2;ratioP2;P2;SDS_P1;SDS_P2;PMS_P1;PMS_P2;Temp;Humidity;BMP_temperature;BMP_pressure;BME280_temperature;BME280_humidity;BME280_pressure;Samples;Min_cycle;Max_cycle;Signal;HPM_P1;HPM_P2
2021/06/12 00:00:18;;;;;;;1999.90;999.90;;;12.20;99.90;;;;;;5052731;28;20172;-56
2021/06/12 00:02:45;;;;;;;1999.90;999.90;;;12.00;99.90;;;;;;5034794;28;20204;-56
2021/06/12 00:05:12;;;;;;;1999.90;999.90;;;12.00;99.90;;;;;;5052831;28;20166;-56
2021/06/12 00:07:39;;;;;;;1999.90;999.90;;;11.90;99.90;;;;;;5052740;28;20169;-56
2021/06/12 00:10:10;;;;;;;1999.90;999.90;;;11.90;99.90;;;;;;5052990;28;20221;-57
2021/06/12 00:12:38;;;;;;;1999.90;999.90;;;11.90;99.90;;;;;;5052773;28;20601;-56
2021/06/12 00:15:11;;;;;;;1999.90;999.90;;;11.90;99.90;;;;;;5052780;28;20188;-55
2021/06/12 00:17:38;;;;;;;1999.90;999.90;;;12.00;99.90;;;;;;5052608;28;20218;-57
2021/06/12 00:20:14;;;;;;;1999.90;999.90;;;12.00;99.90;;;;;;5052822;28;20173;-56
2021/06/12 00:22:43;;;;;;;1999.90;999.90;;;12.10;99.90;;;;;;5052329;28;20205;-56
2021/06/12 00:25:11;;;;;;;1999.90;999.90;;;12.10;99.90;;;;;;5052482;28;20177;-57
2021/06/12 00:27:39;;;;;;;1999.90;999.90;;;11.90;99.90;;;;;;5052185;28;20209;-56
2021/06/12 00:30:08;;;;;;;1999.90;999.90;;;11.90;99.90;;;;;;5052375;28;20189;-57
2021/06/12 00:32:35;;;;;;;1999.90;999.90;;;11.90;99.90;;;;;;5052688;28;20628;-55
2021/06/12 00:35:06;;;;;;;1999.90;999.90;;;11.90;99.90;;;;;;5052242;28;20226;-57
2021/06/12 00:37:32;;;;;;;1999.90;999.90;;;11.90;99.90;;;;;;5052053;28;20195;-56
2021/06/12 00:39:59;;;;;;;1999.90;999.90;;;11.90;99.90;;;;;;5052528;28;20204;-56
2021/06/12 00:42:26;;;;;;;1999.90;999.90;;;11.90;99.90;;;;;;5051973;28;20267;-53
2021/06/12 00:44:53;;;;;;;1999.90;999.90;;;11.80;99.90;;;;;;5051815;28;20173;-55
2021/06/12 00:47:19;;;;;;;1999.90;999.90;;;11.90;99.90;;;;;;5052115;28;20791;-55
2021/06/12 00:49:46;;;;;;;1999.90;999.90;;;11.80;99.90;;;;;;5051818;28;20192;-56
2021/06/12 00:52:13;;;;;;;1999.90;999.90;;;11.70;99.90;;;;;;5052071;28;20209;-58
2021/06/12 00:54:40;;;;;;;1999.90;999.90;;;11.70;99.90;;;;;;5053178;28;20162;-55
2021/06/12 00:57:09;;;;;;;1999.90;999.90;;;11.70;99.90;;;;;;5051930;28;20248;-59
2021/06/12 00:59:36;;;;;;;1999.90;999.90;;;11.70;99.90;;;;;;5051774;28;20188;-56
2021/06/12 01:02:02;;;;;;;1999.90;999.90;;;11.60;99.90;;;;;;5052111;28;20185;-55
2021/06/12 01:04:29;;;;;;;1999.90;999.90;;;11.60;99.90;;;;;;5050739;28;20628;-57
2021/06/12 01:06:56;;;;;;;1999.90;999.90;;;11.60;99.90;;;;;;5051688;28;20173;-56
2021/06/12 01:09:23;;;;;;;1999.90;999.90;;;11.70;99.90;;;;;;5051477;28;20165;-56
2021/06/12 01:12:05;;;;;;;1999.90;999.90;;;11.70;99.90;;;;;;5051087;28;20350;-57
2021/06/12 01:14:37;;;;;;;1999.90;999.90;;;11.70;99.90;;;;;;5051491;28;20254;-57
2021/06/12 01:17:08;;;;;;;1999.90;999.90;;;11.70;99.90;;;;;;5051413;28;20169;-55
2021/06/12 01:19:56;;;;;;;1999.90;999.90;;;11.60;99.90;;;;;;5051547;28;20170;-55
2021/06/12 01:22:29;;;;;;;1999.90;999.90;;;11.50;99.90;;;;;;5051468;28;20176;-55
2021/06/12 01:25:19;;;;;;;1999.90;999.90;;;11.40;99.90;;;;;;5051168;28;20188;-55
2021/06/12 01:28:30;;;;;;;1999.90;999.90;;;11.50;99.90;;;;;;5050958;28;20663;-56
2021/06/12 01:30:57;;;;;;;1999.90;999.90;;;11.50;99.90;;;;;;5035620;28;20212;-56
2021/06/12 01:33:25;;;;;;;1999.90;999.90;;;11.40;99.90;;;;;;5051134;28;20532;-56
2021/06/12 01:36:01;;;;;;;1999.90;999.90;;;11.40;99.90;;;;;;5051116;28;20207;-57
2021/06/12 01:38:31;;;;;;;1999.90;999.90;;;11.40;99.90;;;;;;5051426;28;20623;-55
2021/06/12 01:41:06;;;;;;;1999.90;999.90;;;11.40;99.90;;;;;;5051124;28;20223;-58
2021/06/12 01:43:36;;;;;;;1999.90;999.90;;;11.40;99.90;;;;;;5050844;28;20196;-54
2021/06/12 01:46:06;;;;;;;1999.90;999.90;;;11.50;99.90;;;;;;5050966;28;20260;-55
2021/06/12 01:48:34;;;;;;;1999.90;999.90;;;11.50;99.90;;;;;;5050637;28;20177;-56
2021/06/12 01:51:04;;;;;;;1999.90;999.90;;;11.40;99.90;;;;;;5051029;28;20530;-55
2021/06/12 01:53:32;;;;;;;1999.90;999.90;;;11.50;99.90;;;;;;5050667;28;20176;-57
2021/06/12 01:56:07;;;;;;;1999.90;999.90;;;11.50;99.90;;;;;;5050834;28;20197;-55
2021/06/12 01:58:37;;;;;;;1999.90;999.90;;;11.50;99.90;;;;;;5050925;28;20619;-56
2021/06/12 02:01:06;;;;;;;1999.90;999.90;;;11.50;99.90;;;;;;5050612;28;20169;-56
2021/06/12 02:03:33;;;;;;;1999.90;999.90;;;11.40;99.90;;;;;;5050653;28;20244;-55
2021/06/12 02:06:01;;;;;;;1999.90;999.90;;;11.50;99.90;;;;;;5050898;28;20177;-56
2021/06/12 02:08:28;;;;;;;1999.90;999.90;;;11.40;99.90;;;;;;5050354;28;20165;-55
2021/06/12 02:10:56;;;;;;;1999.90;999.90;;;11.50;99.90;;;;;;5050333;28;20546;-56
2021/06/12 02:13:25;;;;;;;1999.90;999.90;;;11.50;99.90;;;;;;5050545;28;20161;-58
2021/06/12 02:15:57;;;;;;;1999.90;999.90;;;11.40;99.90;;;;;;5050104;28;20157;-56
2021/06/12 02:18:26;;;;;;;1999.90;999.90;;;11.50;99.90;;;;;;5050873;28;20574;-56
2021/06/12 02:20:55;;;;;;;1999.90;999.90;;;11.50;99.90;;;;;;5050469;28;20541;-55
2021/06/12 02:23:24;;;;;;;1999.90;999.90;;;11.50;99.90;;;;;;5050624;28;20197;-56
2021/06/12 02:25:52;;;;;;;1999.90;999.90;;;11.50;99.90;;;;;;5050484;28;20197;-56
2021/06/12 02:28:20;;;;;;;1999.90;999.90;;;11.50;99.90;;;;;;5050668;28;20165;-55
2021/06/12 02:31:09;;;;;;;1999.90;999.90;;;11.50;99.90;;;;;;5050325;28;20158;-55
2021/06/12 02:33:39;;;;;;;1999.90;999.90;;;11.50;99.90;;;;;;5050692;28;20244;-57
2021/06/12 02:36:06;;;;;;;1999.90;999.90;;;11.50;99.90;;;;;;5050289;28;20161;-58
2021/06/12 02:38:33;;;;;;;1999.90;999.90;;;11.30;99.90;;;;;;5032430;28;20196;-59
2021/06/12 02:41:01;;;;;;;1999.90;999.90;;;11.20;99.90;;;;;;5050550;28;20173;-53
2021/06/12 02:43:28;;;;;;;1999.90;999.90;;;11.20;99.90;;;;;;5050090;28;20193;-58
2021/06/12 02:45:55;;;;;;;1999.90;999.90;;;11.00;99.90;;;;;;5050073;28;20170;-57
2021/06/12 02:48:25;;;;;;;1999.90;999.90;;;10.90;99.90;;;;;;5032570;28;20709;-57
2021/06/12 02:50:53;;;;;;;1999.90;999.90;;;10.90;99.90;;;;;;5050189;28;20616;-59
2021/06/12 02:53:25;;;;;;;1999.90;999.90;;;10.90;99.90;;;;;;5050094;28;20168;-58
2021/06/12 02:55:55;;;;;;;1999.90;999.90;;;10.90;99.90;;;;;;5050528;28;20164;-58
2021/06/12 02:58:25;;;;;;;1999.90;999.90;;;11.00;99.90;;;;;;5049992;28;20162;-57
2021/06/12 03:00:53;;;;;;;1999.90;999.90;;;11.00;99.90;;;;;;5050186;28;20166;-53
2021/06/12 03:03:20;;;;;;;1999.90;999.90;;;11.00;99.90;;;;;;5050322;28;20940;-57
2021/06/12 03:05:52;;;;;;;1999.90;999.90;;;11.00;99.90;;;;;;5050245;28;20179;-57
2021/06/12 03:08:19;;;;;;;1999.90;999.90;;;11.00;99.90;;;;;;5050310;28;20165;-56
2021/06/12 03:10:48;;;;;;;1999.90;999.90;;;11.00;99.90;;;;;;5050127;28;20220;-58
2021/06/12 03:13:21;;;;;;;1999.90;999.90;;;11.10;99.90;;;;;;5049965;28;20644;-58
2021/06/12 03:15:48;;;;;;;1999.90;999.90;;;11.00;99.90;;;;;;5050083;28;20564;-59
2021/06/12 03:18:15;;;;;;;1999.90;999.90;;;11.10;99.90;;;;;;5050435;28;20173;-58
2021/06/12 03:20:42;;;;;;;1999.90;999.90;;;11.10;99.90;;;;;;5049800;28;20170;-58
2021/06/12 03:23:10;;;;;;;1999.90;999.90;;;11.10;99.90;;;;;;5050013;28;20205;-55
2021/06/12 03:25:38;;;;;;;1999.90;999.90;;;11.10;99.90;;;;;;5050145;28;20181;-58
2021/06/12 03:28:06;;;;;;;1999.90;999.90;;;11.10;99.90;;;;;;5053383;28;20172;-58
2021/06/12 03:30:33;;;;;;;1999.90;999.90;;;11.10;99.90;;;;;;5054254;28;20583;-57
2021/06/12 03:33:01;;;;;;;1999.90;999.90;;;11.10;99.90;;;;;;5053738;28;20173;-58
2021/06/12 03:35:29;;;;;;;1999.90;999.90;;;11.10;99.90;;;;;;5053368;28;20173;-58
2021/06/12 03:37:57;;;;;;;1999.90;999.90;;;11.10;99.90;;;;;;5053430;28;20173;-55
2021/06/12 03:40:23;;;;;;;1999.90;999.90;;;11.20;99.90;;;;;;5053174;28;20177;-57
2021/06/12 03:42:52;;;;;;;1999.90;999.90;;;11.10;99.90;;;;;;5053805;28;20276;-58
2021/06/12 03:45:19;;;;;;;1999.90;999.90;;;11.10;99.90;;;;;;5053446;28;20172;-57
2021/06/12 03:47:49;;;;;;;1999.90;999.90;;;11.00;99.90;;;;;;5052787;28;20645;-57
2021/06/12 03:50:18;;;;;;;1999.90;999.90;;;11.00;99.90;;;;;;5053050;28;20176;-56
2021/06/12 03:52:45;;;;;;;1999.90;999.90;;;10.90;99.90;;;;;;5053214;28;20165;-58
2021/06/12 03:55:12;;;;;;;1999.90;999.90;;;10.90;99.90;;;;;;5052998;28;20162;-57
2021/06/12 03:57:40;;;;;;;1999.90;999.90;;;10.80;99.90;;;;;;5053219;28;20179;-55
2021/06/12 04:00:11;;;;;;;1999.90;999.90;;;10.70;99.90;;;;;;5053445;28;20169;-56
2021/06/12 04:02:38;;;;;;;1999.90;999.90;;;10.70;99.90;;;;;;5053086;28;20204;-56
2021/06/12 04:05:06;;;;;;;1999.90;999.90;;;10.80;99.90;;;;;;5052920;28;20219;-57
2021/06/12 04:07:32;;;;;;;1999.90;999.90;;;10.80;99.90;;;;;;5053002;28;20179;-58
2021/06/12 04:09:59;;;;;;;1999.90;999.90;;;10.80;99.90;;;;;;5052591;28;20307;-56
2021/06/12 04:12:26;;;;;;;1999.90;999.90;;;10.90;99.90;;;;;;5052923;28;20149;-58
2021/06/12 04:14:53;;;;;;;1999.90;999.90;;;10.80;99.90;;;;;;5052789;28;20165;-57
2021/06/12 04:17:20;;;;;;;1999.90;999.90;;;10.70;99.90;;;;;;5052699;28;20157;-57
2021/06/12 04:19:47;;;;;;;1999.90;999.90;;;10.70;99.90;;;;;;5052372;28;20177;-57
2021/06/12 04:22:13;;;;;;;1999.90;999.90;;;10.70;99.90;;;;;;5052350;28;20671;-56
2021/06/12 04:24:40;;;;;;;1999.90;999.90;;;10.60;99.90;;;;;;5052446;28;20235;-57
2021/06/12 04:27:07;;;;;;;1999.90;999.90;;;10.70;99.90;;;;;;5052510;28;20501;-58
2021/06/12 04:29:34;;;;;;;1999.90;999.90;;;10.60;99.90;;;;;;5052137;28;20246;-57
2021/06/12 04:32:01;;;;;;;1999.90;999.90;;;10.70;99.90;;;;;;5052286;28;20172;-58
2021/06/12 04:34:28;;;;;;;1999.90;999.90;;;10.60;99.90;;;;;;5052330;28;20180;-59
2021/06/12 04:36:55;;;;;;;1999.90;999.90;;;10.60;99.90;;;;;;5052167;28;20193;-56
2021/06/12 04:39:23;;;;;;;1999.90;999.90;;;10.70;99.90;;;;;;5052216;28;20192;-56
2021/06/12 04:41:50;;;;;;;1999.90;999.90;;;10.70;99.90;;;;;;5051765;28;20254;-58
2021/06/12 04:44:17;;;;;;;1999.90;999.90;;;10.60;99.90;;;;;;5034619;28;20697;-57
2021/06/12 04:46:43;;;;;;;1999.90;999.90;;;10.70;99.90;;;;;;5052336;28;20165;-56
2021/06/12 04:49:10;;;;;;;1999.90;999.90;;;10.70;99.90;;;;;;5052029;28;20192;-57
2021/06/12 04:51:37;;;;;;;1999.90;999.90;;;10.60;99.90;;;;;;5051747;28;20169;-57
2021/06/12 04:54:04;;;;;;;1999.90;999.90;;;10.50;99.90;;;;;;5051633;28;20173;-56
2021/06/12 04:56:31;;;;;;;1999.90;999.90;;;10.50;99.90;;;;;;5051794;28;20166;-58
2021/06/12 04:58:58;;;;;;;1999.90;999.90;;;10.60;99.90;;;;;;5051930;28;20267;-55
2021/06/12 05:01:24;;;;;;;1999.90;999.90;;;10.60;99.90;;;;;;5051699;28;20244;-58
2021/06/12 05:03:51;;;;;;;1999.90;999.90;;;10.50;99.90;;;;;;5052130;28;20296;-56
2021/06/12 05:06:18;;;;;;;1999.90;999.90;;;10.40;99.90;;;;;;5051546;28;20165;-57
2021/06/12 05:08:45;;;;;;;1999.90;999.90;;;10.40;99.90;;;;;;5051562;28;20264;-57
2021/06/12 05:11:12;;;;;;;1999.90;999.90;;;10.30;99.90;;;;;;5051681;28;20706;-57
2021/06/12 05:13:39;;;;;;;1999.90;999.90;;;10.30;99.90;;;;;;5051335;28;20264;-57
2021/06/12 05:16:06;;;;;;;1999.90;999.90;;;10.30;99.90;;;;;;5051305;28;20179;-55
2021/06/12 05:18:39;;;;;;;1999.90;999.90;;;10.20;99.90;;;;;;5051714;28;20165;-57
2021/06/12 05:21:08;;;;;;;1999.90;999.90;;;10.10;99.90;;;;;;5051054;28;20161;-57
2021/06/12 05:23:35;;;;;;;1999.90;999.90;;;10.10;99.90;;;;;;5051289;28;20254;-57
2021/06/12 05:26:04;;;;;;;1999.90;999.90;;;10.00;99.90;;;;;;5051555;28;20181;-57
2021/06/12 05:28:31;;;;;;;1999.90;999.90;;;10.00;99.90;;;;;;5051306;28;20523;-59
2021/06/12 05:30:58;;;;;;;1999.90;999.90;;;9.90;99.90;;;;;;5051364;28;20169;-57
2021/06/12 05:33:26;;;;;;;1999.90;999.90;;;9.80;99.90;;;;;;5051209;28;20169;-58
2021/06/12 05:35:56;;;;;;;1999.90;999.90;;;9.90;99.90;;;;;;5033332;28;20227;-57
2021/06/12 05:38:23;;;;;;;1999.90;999.90;;;9.90;99.90;;;;;;5050860;28;20173;-58
2021/06/12 05:40:49;;;;;;;1999.90;999.90;;;9.90;99.90;;;;;;5051361;28;20169;-57
2021/06/12 05:43:16;;;;;;;1999.90;999.90;;;9.90;99.90;;;;;;5050842;28;20200;-57
2021/06/12 05:45:44;;;;;;;1999.90;999.90;;;9.90;99.90;;;;;;5051499;28;20567;-57
2021/06/12 05:48:11;;;;;;;1999.90;999.90;;;9.90;99.90;;;;;;5051231;28;20192;-57
2021/06/12 05:50:38;;;;;;;1999.90;999.90;;;9.90;99.90;;;;;;5050318;28;20654;-56
2021/06/12 05:53:05;;;;;;;1999.90;999.90;;;9.90;99.90;;;;;;5050991;28;20176;-58
2021/06/12 05:55:32;;;;;;;1999.90;999.90;;;9.90;99.90;;;;;;5050892;28;20263;-57
2021/06/12 05:57:59;;;;;;;1999.90;999.90;;;9.90;99.90;;;;;;5050956;28;20166;-57
2021/06/12 06:00:26;;;;;;;1999.90;999.90;;;9.90;99.90;;;;;;5050854;28;20174;-58
2021/06/12 06:02:53;;;;;;;1999.90;999.90;;;9.90;99.90;;;;;;5050956;28;20200;-57
2021/06/12 06:05:20;;;;;;;1999.90;999.90;;;9.90;99.90;;;;;;5050753;28;20227;-59
2021/06/12 06:07:47;;;;;;;1999.90;999.90;;;9.90;99.90;;;;;;5050969;28;20173;-58
2021/06/12 06:10:13;;;;;;;1999.90;999.90;;;9.90;99.90;;;;;;5050451;28;20209;-58
2021/06/12 06:12:40;;;;;;;1999.90;999.90;;;9.90;99.90;;;;;;5050728;28;20552;-57
2021/06/12 06:15:11;;;;;;;1999.90;999.90;;;9.90;99.90;;;;;;5050780;28;20620;-59
2021/06/12 06:17:41;;;;;;;1999.90;999.90;;;9.90;99.90;;;;;;5050384;28;20602;-59
2021/06/12 06:20:11;;;;;;;1999.90;999.90;;;9.90;99.90;;;;;;5050778;28;20168;-58
2021/06/12 06:22:38;;;;;;;1999.90;999.90;;;9.90;99.90;;;;;;5050627;28;20197;-58
2021/06/12 06:25:06;;;;;;;1999.90;999.90;;;9.80;99.90;;;;;;5050361;28;20204;-58
2021/06/12 06:27:34;;;;;;;1999.90;999.90;;;9.90;99.90;;;;;;5050908;28;20181;-58
2021/06/12 06:30:00;;;;;;;1999.90;999.90;;;9.90;99.90;;;;;;5051082;28;20223;-58
2021/06/12 06:32:27;;;;;;;1999.90;999.90;;;9.90;99.90;;;;;;5050106;28;20244;-58
2021/06/12 06:34:54;;;;;;;1999.90;999.90;;;10.00;99.90;;;;;;5050064;28;20228;-57
2021/06/12 06:37:21;;;;;;;1999.90;999.90;;;10.10;99.90;;;;;;5050373;28;20168;-59
2021/06/12 06:39:48;;;;;;;1999.90;999.90;;;10.20;99.90;;;;;;5050221;28;20259;-59
2021/06/12 06:42:14;;;;;;;1999.90;999.90;;;10.30;99.90;;;;;;5049916;28;20573;-59
2021/06/12 06:44:41;;;;;;;1999.90;999.90;;;10.30;99.90;;;;;;5050328;28;20757;-59
2021/06/12 06:47:08;;;;;;;1999.90;999.90;;;10.40;99.90;;;;;;5050000;28;20170;-60
2021/06/12 06:49:35;;;;;;;1999.90;999.90;;;10.50;99.90;;;;;;5049475;28;20542;-59
2021/06/12 06:52:03;;;;;;;1999.90;999.90;;;10.60;99.90;;;;;;5050422;28;20157;-56
2021/06/12 06:54:30;;;;;;;1999.90;999.90;;;10.60;99.90;;;;;;5049814;28;20231;-57
2021/06/12 06:56:57;;;;;;;1999.90;999.90;;;10.60;99.90;;;;;;5049862;28;20564;-59
2021/06/12 06:59:24;;;;;;;1999.90;999.90;;;10.70;99.90;;;;;;5050036;28;20255;-59
2021/06/12 07:01:50;;;;;;;1999.90;999.90;;;10.70;99.90;;;;;;5051320;28;20169;-60
2021/06/12 07:04:17;;;;;;;1999.90;999.90;;;10.80;99.90;;;;;;5053642;28;20590;-59
2021/06/12 07:06:44;;;;;;;1999.90;999.90;;;10.90;99.90;;;;;;5053487;28;20177;-60
2021/06/12 07:09:11;;;;;;;1999.90;999.90;;;11.00;99.90;;;;;;5053248;28;20276;-59
2021/06/12 07:11:37;;;;;;;1999.90;999.90;;;11.10;99.90;;;;;;5053076;28;20217;-59
2021/06/12 07:14:04;;;;;;;1999.90;999.90;;;11.10;99.90;;;;;;5053478;28;20191;-59
2021/06/12 07:16:31;;;;;;;1999.90;999.90;;;11.10;99.90;;;;;;5053179;28;20248;-60
2021/06/12 07:18:58;;;;;;;1999.90;999.90;;;11.20;99.90;;;;;;5053322;28;20256;-59
2021/06/12 07:21:25;;;;;;;1999.90;999.90;;;11.30;99.90;;;;;;5053037;28;20226;-58
2021/06/12 07:23:51;;;;;;;1999.90;999.90;;;11.30;99.90;;;;;;5053010;28;20197;-60
2021/06/12 07:26:18;;;;;;;1999.90;999.90;;;11.50;99.90;;;;;;5053146;28;20165;-60
2021/06/12 07:28:45;;;;;;;1999.90;999.90;;;11.60;99.90;;;;;;5053333;28;20520;-57
2021/06/12 07:31:12;;;;;;;1999.90;999.90;;;11.60;99.90;;;;;;5053103;28;20169;-58
2021/06/12 07:33:38;;;;;;;1999.90;999.90;;;11.80;99.90;;;;;;5052965;28;20210;-59
2021/06/12 07:36:05;;;;;;;1999.90;999.90;;;11.90;99.90;;;;;;5053336;28;20174;-60
2021/06/12 07:38:32;;;;;;;1999.90;999.90;;;12.00;99.90;;;;;;5053129;28;20173;-60
2021/06/12 07:40:59;;;;;;;1999.90;999.90;;;12.10;99.90;;;;;;5053118;28;20528;-60
2021/06/12 07:43:26;;;;;;;1999.90;999.90;;;12.30;99.90;;;;;;5052939;28;20205;-57
2021/06/12 07:45:52;;;;;;;1999.90;999.90;;;12.40;99.90;;;;;;5052941;28;20173;-58
2021/06/12 07:48:19;;;;;;;1999.90;999.90;;;12.60;99.90;;;;;;5052880;28;20174;-59
2021/06/12 07:50:46;;;;;;;1999.90;999.90;;;12.70;99.90;;;;;;5052948;28;20174;-60
2021/06/12 07:53:13;;;;;;;1999.90;999.90;;;12.90;99.90;;;;;;5052801;28;20170;-60
2021/06/12 07:55:41;;;;;;;1999.90;999.90;;;13.10;99.90;;;;;;5052703;28;20180;-58
2021/06/12 07:58:07;;;;;;;1999.90;999.90;;;13.20;99.90;;;;;;5052771;28;20628;-58
2021/06/12 08:00:34;;;;;;;1999.90;999.90;;;13.30;99.90;;;;;;5052373;28;20173;-59
2021/06/12 08:03:01;;;;;;;1999.90;999.90;;;13.40;99.90;;;;;;5034814;28;20208;-59
2021/06/12 08:05:28;;;;;;;1999.90;999.90;;;13.60;99.90;;;;;;5052416;28;20166;-59
2021/06/12 08:07:55;;;;;;;1999.90;999.90;;;13.70;99.90;;;;;;5052258;28;20260;-59
2021/06/12 08:10:21;;;;;;;1999.90;999.90;;;13.80;99.90;;;;;;5052102;28;20706;-58
2021/06/12 08:12:48;;;;;;;1999.90;999.90;;;13.80;99.90;;;;;;5051537;28;20177;-59
2021/06/12 08:15:15;;;;;;;1999.90;999.90;;;13.90;99.90;;;;;;5051993;28;20248;-58
2021/06/12 08:17:43;;;;;;;1999.90;999.90;;;14.00;99.90;;;;;;5052558;28;20195;-58
2021/06/12 08:20:11;;;;;;;1999.90;999.90;;;14.10;99.90;;;;;;5051678;28;20189;-59
2021/06/12 08:22:38;;;;;;;1999.90;999.90;;;14.30;99.90;;;;;;5051957;28;20658;-59
2021/06/12 08:25:06;;;;;;;1999.90;999.90;;;14.40;99.90;;;;;;5051953;28;20168;-59
2021/06/12 08:27:32;;;;;;;1999.90;999.90;;;14.60;99.90;;;;;;5051737;28;20179;-58
2021/06/12 08:29:59;;;;;;;1999.90;999.90;;;14.70;99.90;;;;;;5051803;28;20226;-59
2021/06/12 08:32:26;;;;;;;1999.90;999.90;;;14.90;99.90;;;;;;5051877;28;20172;-59
2021/06/12 08:34:53;;;;;;;1999.90;999.90;;;15.00;99.90;;;;;;5052047;28;20267;-59
2021/06/12 08:37:20;;;;;;;1999.90;999.90;;;15.10;99.90;;;;;;5052238;28;20161;-61
2021/06/12 08:39:46;;;;;;;1999.90;999.90;;;15.30;99.90;;;;;;5052635;28;20165;-59
2021/06/12 08:42:15;;;;;;;1999.90;999.90;;;15.40;99.90;;;;;;5051415;28;20185;-58
2021/06/12 08:44:44;;;;;;;1999.90;999.90;;;15.60;99.90;;;;;;5052461;28;20185;-59
2021/06/12 08:47:12;;;;;;;1999.90;999.90;;;15.60;99.90;;;;;;5052096;28;20218;-60
2021/06/12 08:49:39;;;;;;;1999.90;999.90;;;15.70;99.90;;;;;;5052284;28;20164;-61
2021/06/12 08:52:07;;;;;;;1999.90;999.90;;;15.80;99.90;;;;;;5051955;28;20169;-61
2021/06/12 08:54:33;;;;;;;1999.90;999.90;;;15.90;99.90;;;;;;5052017;28;20173;-61
2021/06/12 08:57:00;;;;;;;1999.90;999.90;;;16.00;99.90;;;;;;5051497;28;20193;-60
2021/06/12 08:59:33;;;;;;;1999.90;999.90;;;16.20;99.90;;;;;;5051417;28;20169;-60
2021/06/12 09:02:00;;;;;;;1999.90;999.90;;;16.40;99.90;;;;;;5051668;28;20162;-59
2021/06/12 09:04:43;;;;;;;1999.90;999.90;;;16.50;99.90;;;;;;5033486;28;20197;-61
2021/06/12 09:07:29;;;;;;;1999.90;999.90;;;16.50;99.90;;;;;;5051979;28;20157;-62
2021/06/12 09:09:57;;;;;;;1999.90;999.90;;;16.60;99.90;;;;;;5050730;28;20236;-59
2021/06/12 09:12:48;;;;;;;1999.90;999.90;;;16.80;99.90;;;;;;5051189;28;20185;-61
2021/06/12 09:15:18;;;;;;;1999.90;999.90;;;16.90;99.90;;;;;;5051395;28;20162;-60
2021/06/12 09:17:48;;;;;;;1999.90;999.90;;;17.00;99.90;;;;;;5051337;28;20468;-61
2021/06/12 09:20:39;;;;;;;1999.90;999.90;;;17.10;99.90;;;;;;5051222;28;20168;-62
2021/06/12 09:23:12;;;;;;;1999.90;999.90;;;17.20;99.30;;;;;;5051050;28;20216;-61
2021/06/12 09:25:45;;;;;;;1999.90;999.90;;;17.50;98.10;;;;;;5050329;28;20172;-61
2021/06/12 09:28:12;;;;;;;1999.90;999.90;;;17.60;98.90;;;;;;5051693;28;20154;-60
2021/06/12 09:30:39;;;;;;;1999.90;999.90;;;17.70;97.30;;;;;;5051167;28;20180;-59
2021/06/12 09:33:06;;;;;;;1999.90;999.90;;;17.80;96.50;;;;;;5050639;28;20515;-61
2021/06/12 09:35:38;;;;;;;1999.90;999.90;;;17.70;96.50;;;;;;5051069;28;20168;-60
2021/06/12 09:38:29;;;;;;;1999.90;999.90;;;17.90;96.50;;;;;;5050617;28;20172;-60
2021/06/12 09:40:56;;;;;;;1999.90;999.90;;;18.00;95.60;;;;;;5051024;28;20154;-60
2021/06/12 09:43:33;;;;;;;1999.90;999.90;;;18.10;95.20;;;;;;5050945;28;20208;-59
2021/06/12 09:46:00;;;;;;;1999.90;999.90;;;18.20;95.30;;;;;;5050676;28;20226;-57
2021/06/12 09:48:27;;;;;;;1999.90;999.90;;;18.40;94.50;;;;;;5050600;28;20169;-61
2021/06/12 09:51:14;;;;;;;1999.90;999.90;;;18.50;93.50;;;;;;5050814;28;20230;-60
2021/06/12 09:53:50;;;;;;;1999.90;999.90;;;18.60;93.30;;;;;;5050656;28;20165;-57
2021/06/12 09:56:19;;;;;;;1999.90;999.90;;;18.70;92.40;;;;;;5050857;28;20577;-60
2021/06/12 09:58:45;;;;;;;1999.90;999.90;;;18.80;91.20;;;;;;5050721;28;20181;-60
2021/06/12 10:01:14;;;;;;;1999.90;999.90;;;18.70;90.90;;;;;;5050438;28;20218;-59
2021/06/12 10:03:41;;;;;;;1999.90;999.90;;;18.60;91.00;;;;;;5050149;28;20213;-58
2021/06/12 10:06:28;;;;;;;1999.90;999.90;;;18.70;91.00;;;;;;5050495;28;20181;-62
2021/06/12 10:08:54;;;;;;;1999.90;999.90;;;18.90;91.80;;;;;;5049963;28;20176;-58
2021/06/12 10:11:29;;;;;;;1999.90;999.90;;;19.00;91.30;;;;;;5050538;28;20259;-61
2021/06/12 10:13:57;;;;;;;1999.90;999.90;;;19.10;91.10;;;;;;5050262;28;20157;-60
2021/06/12 10:16:25;;;;;;;1999.90;999.90;;;19.20;90.60;;;;;;5050091;28;20181;-60
2021/06/12 10:18:53;;;;;;;1999.90;999.90;;;19.30;90.80;;;;;;5050664;28;20260;-59
2021/06/12 10:21:21;;;;;;;1999.90;999.90;;;19.30;91.10;;;;;;5050548;28;20189;-59
2021/06/12 10:23:49;;;;;;;1999.90;999.90;;;19.50;90.90;;;;;;5050257;28;20216;-59
2021/06/12 10:26:18;;;;;;;1999.90;999.90;;;19.70;90.90;;;;;;5050593;28;20218;-60
2021/06/12 10:28:45;;;;;;;1999.90;999.90;;;19.90;89.10;;;;;;5049981;28;20173;-60
2021/06/12 10:31:23;;;;;;;1999.90;999.90;;;20.10;88.20;;;;;;5050399;28;20258;-59
2021/06/12 10:33:52;;;;;;;1999.90;999.90;;;20.00;89.70;;;;;;5050286;28;20172;-61
2021/06/12 10:36:21;;;;;;;1999.90;999.90;;;20.10;87.90;;;;;;5052796;28;20168;-60
2021/06/12 10:38:48;;;;;;;1999.90;999.90;;;20.30;85.70;;;;;;5054628;28;20191;-59
2021/06/12 10:41:22;;;;;;;1999.90;999.90;;;20.40;85.60;;;;;;5054002;28;20177;-60
2021/06/12 10:43:51;;;;;;;1999.90;999.90;;;20.30;84.40;;;;;;5054200;28;20197;-61
2021/06/12 10:46:21;;;;;;;1999.90;999.90;;;20.20;85.40;;;;;;5054110;28;20173;-61
2021/06/12 10:48:52;;;;;;;1999.90;999.90;;;20.40;78.70;;;;;;5054070;28;20713;-60
2021/06/12 10:51:30;;;;;;;1999.90;999.90;;;20.50;77.90;;;;;;5053678;28;20473;-58
2021/06/12 10:54:29;;;;;;;1999.90;999.90;;;20.50;76.00;;;;;;5053730;28;20181;-60
2021/06/12 10:57:05;;;;;;;1999.90;999.90;;;20.70;75.30;;;;;;5042250;28;20185;-61
2021/06/12 10:59:44;;;;;;;1999.90;999.90;;;20.70;74.90;;;;;;5053554;28;20172;-60
2021/06/12 11:02:28;;;;;;;1999.90;999.90;;;20.90;66.30;;;;;;5054003;28;20189;-57
2021/06/12 11:07:39;;;;;;;1999.90;999.90;;;21.20;63.30;;;;;;5053612;28;20173;-60
2021/06/12 11:10:11;;;;;;;1999.90;999.90;;;21.10;61.10;;;;;;5053421;28;20225;-61
2021/06/12 11:12:39;;;;;;;1999.90;999.90;;;21.10;60.00;;;;;;5053192;28;20185;-59
2021/06/12 11:15:21;;;;;;;1999.90;999.90;;;21.10;63.20;;;;;;5053784;28;20169;-59
2021/06/12 11:18:15;;;;;;;1999.90;999.90;;;21.30;62.60;;;;;;5053680;28;20211;-58
2021/06/12 11:21:04;;;;;;;1999.90;999.90;;;21.40;59.90;;;;;;5053539;28;20161;-57
2021/06/12 11:23:54;;;;;;;1999.90;999.90;;;21.50;60.70;;;;;;5053334;28;20256;-58
2021/06/12 11:26:22;;;;;;;1999.90;999.90;;;21.50;58.90;;;;;;5053213;28;20173;-57
2021/06/12 11:29:09;;;;;;;1999.90;999.90;;;21.40;61.00;;;;;;5053468;28;20173;-57
2021/06/12 11:31:37;;;;;;;1999.90;999.90;;;21.60;61.30;;;;;;5053373;28;20168;-60
2021/06/12 11:34:23;;;;;;;1999.90;999.90;;;21.70;59.90;;;;;;5052857;28;20215;-61
2021/06/12 11:37:11;;;;;;;1999.90;999.90;;;21.70;58.70;;;;;;5053181;28;20161;-60
2021/06/12 11:39:47;;;;;;;1999.90;999.90;;;21.60;58.40;;;;;;5052653;28;20173;-60
2021/06/12 11:42:14;;;;;;;1999.90;999.90;;;21.70;59.10;;;;;;5053202;28;20157;-61
2021/06/12 11:44:41;;;;;;;1999.90;999.90;;;21.90;57.90;;;;;;5053009;28;20714;-61
2021/06/12 11:47:07;;;;;;;1999.90;999.90;;;21.90;58.30;;;;;;5052193;28;20193;-60
2021/06/12 11:49:34;;;;;;;1999.90;999.90;;;21.90;59.40;;;;;;5052551;28;20169;-61
2021/06/12 11:52:01;;;;;;;1999.90;999.90;;;22.00;59.00;;;;;;5053066;28;20161;-60
2021/06/12 11:54:31;;;;;;;1999.90;999.90;;;22.00;58.20;;;;;;5052460;28;20177;-56
2021/06/12 11:57:02;;;;;;;1999.90;999.90;;;22.10;59.00;;;;;;5052504;28;20185;-59
2021/06/12 11:59:32;;;;;;;1999.90;999.90;;;22.20;56.50;;;;;;5052584;28;20157;-58
2021/06/12 12:02:06;;;;;;;1999.90;999.90;;;22.30;56.30;;;;;;5052562;28;20208;-58
2021/06/12 12:04:39;;;;;;;1999.90;999.90;;;22.40;55.80;;;;;;5034385;28;20220;-58
2021/06/12 12:07:08;;;;;;;1999.90;999.90;;;22.40;55.60;;;;;;5052239;28;20533;-57
2021/06/12 12:09:38;;;;;;;1999.90;999.90;;;22.50;56.00;;;;;;5052121;28;20257;-58
2021/06/12 12:12:07;;;;;;;1999.90;999.90;;;22.50;55.40;;;;;;5052489;28;20651;-58
2021/06/12 12:14:37;;;;;;;1999.90;999.90;;;22.60;53.60;;;;;;5052190;28;20174;-58